Time;durP1;ratioP1;P1;durP2;ratioP2;P2;SDS_P1;SDS_P2;PMS_P1;PMS_P2;Temp;Humidity;BMP_temperature;BMP_pressure;BME280_temperature;BME280_humidity;BME280_pressure;Samples;Min_cycle;Max_cycle;Signal;HPM_P1;HPM_P2
2022/01/11 00:00:44;;;;;;;52.83;21.10;;;;;;;10.93;85.57;101264.50;5022597;28;20084;-63
2022/01/11 00:03:13;;;;;;;56.90;19.98;;;;;;;11.01;85.59;101278.00;5025510;28;20449;-65
2022/01/11 00:08:14;;;;;;;48.23;19.97;;;;;;;11.15;85.67;101273.63;5021595;28;20081;-62
2022/01/11 00:10:50;;;;;;;51.57;19.60;;;;;;;11.24;85.56;101279.56;5023114;28;20491;-60
2022/01/11 00:13:21;;;;;;;47.55;19.13;;;;;;;11.20;85.70;101263.59;5022244;28;20056;-60
2022/01/11 00:15:48;;;;;;;49.33;19.23;;;;;;;11.36;85.59;101276.59;5025497;28;20136;-60
2022/01/11 00:18:15;;;;;;;45.30;19.50;;;;;;;11.41;85.49;101270.19;5026830;28;20064;-62
2022/01/11 00:20:42;;;;;;;41.77;18.90;;;;;;;11.43;85.53;101267.97;5018608;28;20077;-63
2022/01/11 00:25:42;;;;;;;50.00;18.97;;;;;;;11.44;85.36;101276.09;5022777;28;20129;-63
2022/01/11 00:28:14;;;;;;;45.87;18.50;;;;;;;11.48;85.48;101277.22;5027417;28;20413;-63
2022/01/11 00:30:47;;;;;;;54.60;24.37;;;;;;;11.48;85.42;101277.22;5026725;28;20556;-62
2022/01/11 00:33:20;;;;;;;62.17;20.67;;;;;;;11.32;85.61;101242.75;5020750;28;20045;-62
2022/01/11 00:36:00;;;;;;;59.43;21.13;;;;;;;11.52;85.59;101266.34;5018745;28;20077;-62
2022/01/11 00:38:31;;;;;;;45.50;20.92;;;;;;;11.49;85.55;101258.53;5013832;28;20144;-61
2022/01/11 00:41:01;;;;;;;54.33;20.50;;;;;;;11.57;85.54;101263.59;5028693;28;20140;-61
2022/01/11 00:43:28;;;;;;;51.77;22.10;;;;;;;11.51;85.60;101256.28;5031873;28;20500;-60
2022/01/11 00:45:57;;;;;;;59.33;22.40;;;;;;;11.60;85.59;101258.31;5029962;28;20046;-60
2022/01/11 00:48:25;;;;;;;66.37;25.47;;;;;;;11.39;85.51;101222.94;5021538;28;20046;-60
2022/01/11 00:50:53;;;;;;;65.03;23.87;;;;;;;11.58;85.64;101266.09;5024296;28;20402;-60
2022/01/11 00:53:20;;;;;;;61.17;24.30;;;;;;;11.58;85.59;101254.91;5028542;28;20132;-59
2022/01/11 00:55:47;;;;;;;68.17;25.63;;;;;;;11.58;85.59;101260.50;5032338;28;20115;-59
2022/01/11 00:58:16;;;;;;;60.60;24.70;;;;;;;11.55;85.46;101249.84;5024915;28;20080;-60
2022/01/11 01:00:43;;;;;;;75.40;25.87;;;;;;;11.57;85.61;101258.00;5032006;28;20042;-60
2022/01/11 01:03:11;;;;;;;62.47;23.70;;;;;;;11.44;85.55;101242.53;5031363;28;20045;-60
2022/01/11 01:05:39;;;;;;;67.33;22.13;;;;;;;11.44;85.43;101231.34;5028386;28;20524;-62
2022/01/11 01:08:06;;;;;;;67.77;23.83;;;;;;;11.51;85.64;101254.31;5024749;28;20140;-60
2022/01/11 01:10:40;;;;;;;66.80;23.23;;;;;;;11.48;85.59;101249.25;5028254;28;20128;-61
2022/01/11 01:13:17;;;;;;;66.97;22.03;;;;;;;11.37;85.43;101223.19;5029202;28;20072;-61
2022/01/11 01:15:47;;;;;;;50.67;21.10;;;;;;;11.46;85.67;101247.88;5021696;28;20046;-60
2022/01/11 01:18:21;;;;;;;64.55;20.15;;;;;;;11.42;85.69;101243.91;5033530;28;20491;-58
2022/01/11 01:20:50;;;;;;;64.80;21.00;;;;;;;11.34;85.58;101242.47;5016381;28;20050;-59
2022/01/11 01:23:18;;;;;;;78.47;23.87;;;;;;;11.38;85.67;101243.59;5016522;28;20060;-59
2022/01/11 01:25:46;;;;;;;70.90;23.87;;;;;;;11.36;85.61;101243.88;5019789;28;20413;-60
2022/01/11 01:28:13;;;;;;;86.67;23.27;;;;;;;11.34;85.54;101250.84;5014809;28;20085;-60
2022/01/11 01:30:41;;;;;;;72.20;23.47;;;;;;;11.30;85.66;101249.69;5021392;28;20080;-60
2022/01/11 01:33:08;;;;;;;83.23;22.77;;;;;;;11.22;85.52;101241.81;5019497;28;20132;-61
2022/01/11 01:35:43;;;;;;;158.70;36.23;;;;;;;11.19;85.71;101251.59;5027732;28;20045;-60
2022/01/11 01:38:12;;;;;;;76.27;20.67;;;;;;;11.15;85.83;101237.31;5030116;28;20151;-61
2022/01/11 01:40:45;;;;;;;73.70;22.50;;;;;;;11.21;85.67;101242.91;5016092;28;20050;-61
2022/01/11 01:43:13;;;;;;;63.47;20.53;;;;;;;11.21;85.71;101246.56;5012754;28;20144;-60
2022/01/11 01:45:43;;;;;;;88.20;22.03;;;;;;;11.17;85.66;101247.38;5014946;28;20054;-59
2022/01/11 01:48:12;;;;;;;77.70;21.17;;;;;;;11.11;85.82;101244.53;5016447;28;20048;-60
2022/01/11 01:50:39;;;;;;;66.17;18.80;;;;;;;10.95;85.69;101228.75;5008984;28;20711;-61
2022/01/11 01:53:10;;;;;;;70.87;19.37;;;;;;;10.90;85.85;101226.72;5030016;28;20413;-61
2022/01/11 01:55:42;;;;;;;74.77;21.50;;;;;;;10.87;85.67;101230.09;5024956;28;20056;-62
2022/01/11 01:58:10;;;;;;;78.50;22.50;;;;;;;10.66;86.04;101195.50;5029201;28;20136;-61
2022/01/11 02:00:42;;;;;;;92.23;23.83;;;;;;;10.92;86.00;101229.28;5027822;28;20569;-58
2022/01/11 02:03:14;;;;;;;80.07;24.40;;;;;;;10.97;85.88;101234.91;5015467;28;20133;-61
2022/01/11 02:05:42;;;;;;;100.27;25.70;;;;;;;11.00;85.95;101237.16;5024646;28;20055;-62
2022/01/11 02:08:11;;;;;;;77.63;23.10;;;;;;;10.99;85.82;101235.50;5027921;28;20092;-60
2022/01/11 02:10:38;;;;;;;70.60;20.47;;;;;;;10.99;85.95;101243.88;5028644;28;20129;-63
2022/01/11 02:13:08;;;;;;;53.60;16.03;;;;;;;10.90;85.84;101234.28;5027077;28;20104;-61
2022/01/11 02:15:37;;;;;;;;;;;;;;;10.49;86.67;101241.44;5020252;28;20128;-61
2022/01/11 02:18:11;;;;;;;46.77;17.67;;;;;;;10.61;86.17;101239.34;5028983;28;20037;-59
2022/01/11 02:20:40;;;;;;;47.07;15.60;;;;;;;10.63;86.36;101239.91;5016092;28;20137;-59
2022/01/11 02:23:07;;;;;;;41.90;15.03;;;;;;;10.52;86.02;101241.75;5021666;28;20188;-60
2022/01/11 02:25:35;;;;;;;42.43;15.83;;;;;;;10.52;86.18;101250.13;5026420;28;20042;-59
2022/01/11 02:28:04;;;;;;;57.87;16.60;;;;;;;10.52;86.38;101235.31;5028021;28;20124;-62
2022/01/11 02:30:33;;;;;;;48.67;17.07;;;;;;;10.61;86.07;101253.31;5028827;28;20461;-61
2022/01/11 02:33:03;;;;;;;44.03;17.03;;;;;;;10.68;86.13;101246.38;5030161;28;20133;-60
2022/01/11 02:35:31;;;;;;;43.07;15.20;;;;;;;10.55;86.41;101223.63;5016160;28;20088;-59
2022/01/11 02:37:59;;;;;;;51.57;17.63;;;;;;;10.75;86.33;101256.50;5021004;28;20095;-60
2022/01/11 02:40:26;;;;;;;46.13;17.13;;;;;;;10.68;86.18;101239.97;5020688;28;20120;-60
2022/01/11 02:42:53;;;;;;;44.50;17.43;;;;;;;10.80;86.17;101242.56;5021329;28;20414;-59
2022/01/11 02:45:21;;;;;;;39.13;14.97;;;;;;;10.89;86.08;101244.63;5021282;28;20128;-58
2022/01/11 02:47:48;;;;;;;47.13;15.43;;;;;;;10.92;86.03;101246.06;5021146;28;20128;-63
2022/01/11 02:50:17;;;;;;;43.53;17.00;;;;;;;10.94;85.97;101240.19;5029296;28;20128;-62
2022/01/11 02:52:44;;;;;;;45.10;15.40;;;;;;;10.96;85.94;101250.00;5016340;28;20248;-63
2022/01/11 02:55:14;;;;;;;45.77;17.00;;;;;;;10.98;85.96;101239.41;5010327;28;20439;-63
2022/01/11 02:57:41;;;;;;;42.77;15.30;;;;;;;11.00;85.95;101245.53;5024506;28;20081;-62
2022/01/11 03:00:14;;;;;;;47.30;15.93;;;;;;;11.01;85.81;101249.19;5026024;28;20133;-63
2022/01/11 03:02:40;;;;;;;46.97;16.03;;;;;;;11.03;86.20;101247.81;5022720;28;20056;-60
2022/01/11 03:05:11;;;;;;;46.83;17.10;;;;;;;11.08;86.10;101239.47;5023284;28;20041;-59
2022/01/11 03:07:39;;;;;;;44.23;15.33;;;;;;;11.10;85.95;101248.44;5024919;28;20076;-61
2022/01/11 03:10:54;;;;;;;38.07;15.20;;;;;;;11.07;85.76;101243.38;5027110;28;20330;-60
2022/01/11 03:13:06;;;;;;;54.97;16.47;;;;;;;11.08;85.95;101247.03;5015811;28;20073;-59
2022/01/11 03:15:34;;;;;;;48.40;15.73;;;;;;;11.11;86.19;101255.72;5023422;28;20133;-59
2022/01/11 03:18:04;;;;;;;50.23;17.80;;;;;;;11.05;85.97;101240.00;5022249;28;20438;-60
2022/01/11 03:20:32;;;;;;;38.28;14.57;;;;;;;11.12;86.07;101251.81;5015821;28;20049;-66
2022/01/11 03:22:59;;;;;;;53.77;17.60;;;;;;;11.10;85.89;101242.00;5027222;28;20120;-63
2022/01/11 03:25:26;;;;;;;44.77;16.87;;;;;;;11.12;86.15;101250.97;5030613;28;20132;-63
2022/01/11 03:27:55;;;;;;;90.33;18.30;;;;;;;11.12;85.88;101250.97;5026941;28;20099;-63
2022/01/11 03:30:22;;;;;;;55.93;16.30;;;;;;;11.12;86.04;101254.59;5024296;28;20060;-62
2022/01/11 03:32:49;;;;;;;45.13;15.90;;;;;;;11.03;85.83;101239.44;5032102;28;20485;-62
2022/01/11 03:35:18;;;;;;;94.00;19.13;;;;;;;11.09;85.77;101260.72;5030247;28;20238;-62
2022/01/11 03:37:46;;;;;;;87.17;18.23;;;;;;;11.04;85.85;101249.53;5025382;28;20468;-62
2022/01/11 03:40:16;;;;;;;65.23;17.07;;;;;;;11.02;85.73;101251.72;5019967;28;20085;-63
2022/01/11 03:42:45;;;;;;;59.40;15.30;;;;;;;11.02;85.85;101250.88;5028288;28;20140;-62
2022/01/11 03:45:14;;;;;;;56.47;15.67;;;;;;;11.01;85.81;101250.06;5024672;28;20133;-61
2022/01/11 03:47:41;;;;;;;105.95;21.23;;;;;;;10.99;86.09;101246.66;5021824;28;20573;-62
2022/01/11 03:50:10;;;;;;;56.63;17.13;;;;;;;10.99;85.69;101245.81;5023154;28;20132;-65
2022/01/11 03:52:39;;;;;;;41.23;13.93;;;;;;;11.04;85.92;101249.53;5029081;28;20084;-64
2022/01/11 03:55:21;;;;;;;40.17;13.43;;;;;;;11.03;85.82;101253.41;5025214;28;20128;-63
2022/01/11 03:57:49;;;;;;;37.37;13.53;;;;;;;10.94;85.86;101237.38;5011249;28;20132;-61
2022/01/11 04:00:19;;;;;;;57.87;14.33;;;;;;;10.98;85.82;101258.97;5025475;28;20132;-61
2022/01/11 04:02:46;;;;;;;;;;;;;;;10.60;86.51;101260.84;5028266;28;20132;-62
2022/01/11 04:05:13;;;;;;;37.80;11.07;;;;;;;10.78;86.08;101256.81;5013641;28;19944;-63
2022/01/11 04:07:41;;;;;;;41.27;11.40;;;;;;;10.77;86.05;101254.28;5020730;28;20121;-63
2022/01/11 04:10:09;;;;;;;41.03;14.23;;;;;;;10.76;85.76;101260.97;5024253;28;20141;-63
2022/01/11 04:12:36;;;;;;;48.70;15.47;;;;;;;10.75;85.89;101262.09;5028270;28;20076;-63
2022/01/11 04:15:04;;;;;;;34.67;12.17;;;;;;;10.75;85.78;101256.50;5036180;28;20124;-62
2022/01/11 04:17:30;;;;;;;43.40;12.00;;;;;;;10.77;85.95;101271.91;5032170;28;20133;-62
2022/01/11 04:19:58;;;;;;;45.40;11.87;;;;;;;10.77;85.85;101259.88;5024220;28;20136;-70
2022/01/11 04:22:24;;;;;;;40.80;13.27;;;;;;;10.73;85.65;101258.72;5026570;28;20129;-58
2022/01/11 04:24:51;;;;;;;44.33;13.17;;;;;;;10.63;85.62;101253.84;5030968;28;20137;-58
2022/01/11 04:27:18;;;;;;;45.73;13.23;;;;;;;10.74;85.79;101264.06;5035347;28;20128;-58
2022/01/11 04:29:45;;;;;;;52.73;12.70;;;;;;;10.66;85.74;101253.34;5025973;28;20072;-58
2022/01/11 04:32:12;;;;;;;52.23;14.67;;;;;;;10.72;85.84;101273.78;5020545;28;20069;-57
2022/01/11 04:34:39;;;;;;;44.73;12.37;;;;;;;10.55;85.77;101257.97;5030210;28;20468;-56
2022/01/11 04:37:06;;;;;;;43.40;12.77;;;;;;;10.61;85.58;101278.44;5028146;28;20471;-56
2022/01/11 04:39:33;;;;;;;43.57;12.23;;;;;;;10.59;85.64;101270.31;5028549;28;20069;-56
2022/01/11 04:42:00;;;;;;;69.23;17.20;;;;;;;10.53;85.78;101276.97;5042721;28;20041;-56
2022/01/11 04:44:26;;;;;;;28.20;12.43;;;;;;;10.53;85.62;101276.97;5021485;28;20125;-56
2022/01/11 04:46:53;;;;;;;45.87;13.33;;;;;;;10.53;85.77;101278.88;5024401;28;20132;-55
2022/01/11 04:49:20;;;;;;;33.90;12.17;;;;;;;10.48;85.75;101268.50;5033208;28;20132;-57
2022/01/11 04:51:47;;;;;;;27.20;10.03;;;;;;;10.46;85.98;101264.28;5028653;28;20084;-55
2022/01/11 04:54:14;;;;;;;27.37;10.93;;;;;;;10.44;85.81;101270.16;5023785;28;20510;-57
2022/01/11 04:56:41;;;;;;;31.57;11.27;;;;;;;10.43;85.77;101269.31;5021894;28;20462;-58
2022/01/11 04:59:08;;;;;;;19.80;9.07;;;;;;;10.43;85.65;101269.31;5018136;28;20064;-58
2022/01/11 05:01:35;;;;;;;28.03;11.40;;;;;;;10.43;85.58;101268.47;5011226;28;20049;-59
2022/01/11 05:04:03;;;;;;;24.43;11.37;;;;;;;10.42;85.76;101266.78;5013256;28;20485;-59
2022/01/11 05:06:30;;;;;;;21.80;9.40;;;;;;;10.41;85.55;101262.31;5012054;28;20166;-58
2022/01/11 05:08:57;;;;;;;35.17;10.77;;;;;;;10.38;85.54;101262.81;5031723;28;20513;-57
2022/01/11 05:11:25;;;;;;;35.20;11.30;;;;;;;10.31;85.34;101260.22;5026270;28;20082;-55
2022/01/11 05:13:51;;;;;;;27.73;10.33;;;;;;;10.21;85.52;101249.75;5024170;28;20132;-56
2022/01/11 05:16:18;;;;;;;36.70;12.30;;;;;;;10.21;85.40;101263.72;5019327;28;20153;-58
2022/01/11 05:18:45;;;;;;;20.47;10.40;;;;;;;9.97;85.17;101228.81;5014050;28;20446;-57
2022/01/11 05:21:12;;;;;;;27.53;10.83;;;;;;;10.12;85.14;101254.13;5027191;28;20073;-55
2022/01/11 05:23:39;;;;;;;26.10;11.70;;;;;;;10.10;85.16;101261.91;5025913;28;20133;-56
2022/01/11 05:26:06;;;;;;;26.10;11.40;;;;;;;10.07;85.37;101262.41;5028146;28;20128;-56
2022/01/11 05:28:34;;;;;;;33.17;11.60;;;;;;;9.94;85.34;101241.31;5015374;28;20130;-56
2022/01/11 05:31:03;;;;;;;30.93;10.77;;;;;;;10.00;85.11;101256.19;5026908;28;20049;-57
2022/01/11 05:33:31;;;;;;;52.13;13.60;;;;;;;9.97;85.34;101257.56;5027178;28;20391;-58
2022/01/11 05:35:57;;;;;;;56.77;14.60;;;;;;;9.93;85.22;101261.13;5027463;28;20120;-59
2022/01/11 05:38:25;;;;;;;40.33;12.60;;;;;;;9.82;85.31;101250.94;5027000;28;20052;-59
2022/01/11 05:40:54;;;;;;;63.83;13.07;;;;;;;9.73;85.09;101240.22;5023896;28;20564;-58
2022/01/11 05:43:21;;;;;;;38.27;10.97;;;;;;;9.78;85.28;101246.97;5025329;28;20056;-58
2022/01/11 05:45:48;;;;;;;56.83;14.50;;;;;;;9.60;85.19;101221.06;5027092;28;20204;-58
2022/01/11 05:48:15;;;;;;;79.37;13.63;;;;;;;9.71;85.16;101238.81;5028668;28;20560;-58
2022/01/11 05:50:43;;;;;;;77.87;15.53;;;;;;;9.77;85.05;101262.03;5026225;28;20222;-59
2022/01/11 05:53:10;;;;;;;53.93;12.50;;;;;;;9.69;84.98;101261.38;5025079;28;20121;-59
2022/01/11 05:55:38;;;;;;;54.20;11.37;;;;;;;9.69;85.09;101264.16;5022407;28;20535;-61
2022/01/11 05:58:04;;;;;;;54.47;12.97;;;;;;;9.61;85.03;101253.47;5023767;28;20624;-59
2022/01/11 06:00:31;;;;;;;28.47;9.43;;;;;;;9.59;84.89;101255.66;5029516;28;20538;-58
2022/01/11 06:03:02;;;;;;;22.83;8.73;;;;;;;9.53;84.89;101259.44;5027241;28;20053;-60
2022/01/11 06:05:31;;;;;;;58.80;12.43;;;;;;;9.52;84.62;101266.13;5025189;28;20053;-60
2022/01/11 06:07:59;;;;;;;22.17;8.93;;;;;;;9.46;84.88;101272.72;5013855;28;20069;-60
2022/01/11 06:10:26;;;;;;;26.00;9.93;;;;;;;9.42;84.88;101275.19;5030161;28;20128;-59
2022/01/11 06:12:53;;;;;;;23.93;10.13;;;;;;;9.42;84.90;101285.50;5028771;28;20069;-59
2022/01/11 06:15:20;;;;;;;36.07;11.33;;;;;;;9.40;84.88;101280.19;5027176;28;20041;-59
2022/01/11 06:17:47;;;;;;;40.07;12.13;;;;;;;9.40;85.01;101284.91;5030292;28;20080;-58
2022/01/11 06:20:14;;;;;;;71.07;14.10;;;;;;;9.40;84.98;101287.69;5022653;28;20137;-58
2022/01/11 06:22:41;;;;;;;27.63;10.17;;;;;;;9.40;84.91;101287.69;5028916;28;20131;-60
2022/01/11 06:25:09;;;;;;;25.80;10.70;;;;;;;9.40;84.89;101284.91;5027520;28;20136;-59
2022/01/11 06:27:40;;;;;;;24.17;10.33;;;;;;;9.32;84.77;101274.19;5029966;28;20461;-63
2022/01/11 06:30:14;;;;;;;27.47;11.23;;;;;;;9.37;84.75;101291.00;5018350;28;20482;-59
2022/01/11 06:32:43;;;;;;;56.70;13.70;;;;;;;9.36;84.77;101290.13;5019736;28;20070;-59
2022/01/11 06:35:15;;;;;;;29.23;11.10;;;;;;;9.32;84.86;101285.34;5019467;28;20041;-59
2022/01/11 06:37:42;;;;;;;26.60;9.17;;;;;;;9.26;84.68;101276.03;5024882;28;20087;-59
2022/01/11 06:40:09;;;;;;;68.27;13.90;;;;;;;9.30;84.69;101291.19;5017414;28;20153;-59
2022/01/11 06:42:36;;;;;;;84.60;14.90;;;;;;;9.20;84.77;101283.50;5017122;28;20045;-58
2022/01/11 06:45:05;;;;;;;29.90;10.47;;;;;;;9.20;84.79;101289.06;5021076;28;20136;-60
2022/01/11 06:47:32;;;;;;;20.37;8.37;;;;;;;9.16;85.10;101304.63;5022470;28;20132;-59
2022/01/11 06:49:59;;;;;;;20.77;9.13;;;;;;;9.07;84.99;101292.19;5020699;28;20140;-60
2022/01/11 06:52:26;;;;;;;21.17;10.43;;;;;;;8.98;84.87;101266.66;5028420;28;20068;-59
2022/01/11 06:54:53;;;;;;;16.73;8.60;;;;;;;9.03;84.79;101285.44;5021211;28;20881;-64
2022/01/11 06:57:20;;;;;;;18.73;9.40;;;;;;;9.00;84.85;101291.50;5019946;28;20127;-62
2022/01/11 06:59:47;;;;;;;20.37;9.57;;;;;;;9.04;84.97;101292.69;5023617;28;20145;-63
2022/01/11 07:02:14;;;;;;;21.60;10.00;;;;;;;9.07;85.02;101297.75;5029327;28;20140;-63
2022/01/11 07:04:41;;;;;;;20.00;9.77;;;;;;;8.97;84.90;101280.88;5021230;28;20050;-62
2022/01/11 07:07:08;;;;;;;19.50;10.20;;;;;;;9.02;85.03;101283.72;5023816;28;20132;-63
2022/01/11 07:09:35;;;;;;;17.60;9.30;;;;;;;9.01;84.95;101299.59;5024371;28;20193;-62
2022/01/11 07:12:03;;;;;;;21.50;9.00;;;;;;;8.57;85.14;101230.84;5027190;28;20555;-63
2022/01/11 07:14:30;;;;;;;15.57;8.20;;;;;;;8.97;85.42;101292.84;5020598;28;20128;-62
2022/01/11 07:16:57;;;;;;;24.47;9.53;;;;;;;9.01;85.14;101304.34;5025526;28;20045;-61
2022/01/11 07:19:24;;;;;;;18.47;9.27;;;;;;;8.93;85.14;101293.63;5022230;28;20041;-61
2022/01/11 07:21:51;;;;;;;19.50;9.53;;;;;;;8.93;84.93;101288.03;5018565;28;20051;-61
2022/01/11 07:24:18;;;;;;;22.80;10.70;;;;;;;9.00;85.08;101303.50;5026666;28;20466;-65
2022/01/11 07:26:45;;;;;;;24.20;11.10;;;;;;;8.96;84.77;101287.53;5018932;28;20137;-63
2022/01/11 07:29:12;;;;;;;22.90;12.13;;;;;;;8.99;84.63;101295.38;5023615;28;20108;-62
2022/01/11 07:31:39;;;;;;;20.70;9.83;;;;;;;9.05;84.67;101299.94;5017892;28;20409;-62
2022/01/11 07:34:06;;;;;;;19.83;9.20;;;;;;;9.01;84.64;101284.84;5020874;28;20049;-61
2022/01/11 07:36:33;;;;;;;21.37;9.57;;;;;;;9.09;84.74;101289.97;5020952;28;20517;-62
2022/01/11 07:39:00;;;;;;;19.07;9.50;;;;;;;9.09;84.48;101295.53;5017715;28;20045;-62
2022/01/11 07:41:27;;;;;;;20.10;9.20;;;;;;;9.08;84.43;101299.44;5020741;28;20132;-61
2022/01/11 07:43:54;;;;;;;19.70;9.40;;;;;;;9.01;84.37;101293.19;5027710;28;20144;-61
2022/01/11 07:46:21;;;;;;;17.57;10.43;;;;;;;8.99;84.26;101296.25;5021159;28;20099;-62
2022/01/11 07:48:48;;;;;;;37.70;13.83;;;;;;;8.97;84.40;101305.94;5025194;28;20056;-61
2022/01/11 07:51:15;;;;;;;39.90;13.43;;;;;;;8.83;84.39;101287.88;5016728;28;20088;-62
2022/01/11 07:53:42;;;;;;;69.63;20.77;;;;;;;8.82;84.39;101288.94;5021589;28;20103;-62
2022/01/11 07:56:09;;;;;;;12.93;7.37;;;;;;;8.82;85.09;101283.38;5020826;28;20161;-62
2022/01/11 07:58:37;;;;;;;12.27;6.17;;;;;;;9.09;85.11;101298.34;5011587;28;20046;-62
2022/01/11 08:01:04;;;;;;;9.70;6.37;;;;;;;9.31;85.38;101292.03;5020319;28;20057;-62
2022/01/11 08:03:31;;;;;;;6.27;3.83;;;;;;;9.55;85.38;101299.09;5026648;28;20057;-62
2022/01/11 08:05:59;;;;;;;6.80;4.10;;;;;;;9.82;85.08;101287.22;5024378;28;20128;-62
2022/01/11 08:08:25;;;;;;;7.40;4.70;;;;;;;10.12;84.99;101293.19;5015811;28;20466;-61
2022/01/11 08:10:53;;;;;;;7.57;4.53;;;;;;;10.32;84.95;101291.78;5011041;28;20653;-62
2022/01/11 08:13:22;;;;;;;13.83;7.90;;;;;;;10.49;84.46;101306.50;5020324;28;20037;-62
2022/01/11 08:15:49;;;;;;;14.10;7.63;;;;;;;10.39;84.90;101307.25;5026664;28;20137;-62
2022/01/11 08:18:16;;;;;;;21.27;10.00;;;;;;;10.32;84.78;101316.91;5029474;28;20084;-62
2022/01/11 08:20:47;;;;;;;20.00;9.47;;;;;;;10.15;85.18;101306.66;5031969;28;20132;-62
2022/01/11 08:23:14;;;;;;;16.47;8.90;;;;;;;10.28;85.56;101324.97;5022576;28;20140;-62
2022/01/11 08:25:41;;;;;;;16.27;8.10;;;;;;;10.06;85.93;101277.50;5015032;28;20133;-62
2022/01/11 08:28:09;;;;;;;18.37;9.03;;;;;;;10.46;86.08;101325.72;5021524;28;20499;-62
2022/01/11 08:30:37;;;;;;;13.97;8.13;;;;;;;10.62;86.31;101324.81;5028558;28;20121;-62
2022/01/11 08:33:04;;;;;;;24.77;12.43;;;;;;;10.78;86.38;101345.38;5030059;28;20128;-62
2022/01/11 08:35:35;;;;;;;21.47;11.10;;;;;;;10.80;86.13;101326.38;5022679;28;20124;-61
2022/01/11 08:38:03;;;;;;;18.77;10.27;;;;;;;10.96;86.29;101350.59;5031317;28;20255;-62
2022/01/11 08:40:30;;;;;;;19.20;9.67;;;;;;;11.14;86.60;101346.56;5039892;28;20115;-62
2022/01/11 08:42:58;;;;;;;23.53;9.97;;;;;;;11.34;86.62;101343.13;5026950;28;20084;-61
2022/01/11 08:45:25;;;;;;;16.10;8.90;;;;;;;11.57;86.89;101347.50;5017855;28;20531;-62
2022/01/11 08:47:51;;;;;;;14.83;8.50;;;;;;;11.81;86.94;101337.63;5022206;28;20136;-62
2022/01/11 08:50:18;;;;;;;18.90;9.40;;;;;;;11.99;86.73;101347.53;5030743;28;20103;-62
2022/01/11 08:52:45;;;;;;;13.57;8.43;;;;;;;12.29;86.63;101351.63;5023664;28;20053;-62
2022/01/11 08:55:13;;;;;;;11.43;7.33;;;;;;;12.49;86.31;101360.13;5031690;28;20191;-62
2022/01/11 08:57:40;;;;;;;11.43;7.37;;;;;;;12.63;86.45;101348.41;5031955;28;20136;-62
2022/01/11 09:00:16;;;;;;;13.07;6.43;;;;;;;12.78;85.92;101337.25;5027229;28;20498;-62
2022/01/11 09:02:47;;;;;;;11.00;6.78;;;;;;;13.30;86.10;101353.09;5019364;28;20048;-62
2022/01/11 09:05:15;;;;;;;9.20;5.57;;;;;;;13.93;85.48;101361.19;5023722;28;20440;-63
2022/01/11 09:07:42;;;;;;;6.80;3.85;;;;;;;14.52;84.37;101363.28;5022908;28;20136;-64
2022/01/11 09:10:10;;;;;;;7.53;4.93;;;;;;;15.22;83.36;101354.75;5017107;28;20081;-63
2022/01/11 09:12:38;;;;;;;8.48;4.93;;;;;;;15.96;82.19;101363.13;5022763;28;20049;-64
2022/01/11 09:15:08;;;;;;;11.82;6.55;;;;;;;16.60;81.12;101361.84;5022983;28;20152;-62
2022/01/11 09:17:35;;;;;;;;;;;;;;;17.19;82.71;101366.13;5034035;28;20124;-64
2022/01/11 09:20:05;;;;;;;10.27;5.72;;;;;;;17.66;79.68;101350.13;5027366;28;19921;-63
2022/01/11 09:22:32;;;;;;;8.00;4.40;;;;;;;18.21;78.74;101375.69;5029826;28;20069;-63
2022/01/11 09:24:59;;;;;;;6.72;4.35;;;;;;;18.74;77.40;101387.72;5030424;28;20124;-64
2022/01/11 09:27:26;;;;;;;6.82;4.57;;;;;;;19.26;76.31;101388.25;5026901;28;20195;-64
2022/01/11 09:29:59;;;;;;;5.25;4.00;;;;;;;19.79;74.41;101387.50;5020253;28;20041;-64
2022/01/11 09:32:26;;;;;;;6.32;4.20;;;;;;;20.24;72.65;101381.78;5033789;28;20073;-64
2022/01/11 09:34:53;;;;;;;6.00;3.78;;;;;;;20.50;71.80;101376.22;5018867;28;20144;-64
2022/01/11 09:37:22;;;;;;;7.07;4.18;;;;;;;20.95;70.66;101382.56;5024397;28;20046;-64
2022/01/11 09:39:49;;;;;;;5.18;3.30;;;;;;;21.28;67.60;101387.81;5034360;28;20140;-65
2022/01/11 09:42:17;;;;;;;4.35;3.20;;;;;;;21.39;65.58;101392.03;5028195;28;20128;-65
2022/01/11 09:44:43;;;;;;;4.32;3.60;;;;;;;21.61;63.57;101376.00;5028535;28;20141;-65
2022/01/11 09:47:12;;;;;;;5.07;3.33;;;;;;;22.00;63.44;101391.97;5019080;28;20065;-64
2022/01/11 09:49:40;;;;;;;4.38;2.92;;;;;;;22.24;62.29;101391.44;5033643;28;20049;-64
2022/01/11 09:52:08;;;;;;;6.07;3.53;;;;;;;22.41;61.38;101404.78;5028155;28;20573;-64
2022/01/11 09:54:38;;;;;;;5.47;4.40;;;;;;;22.86;60.15;101401.38;5030445;28;20081;-65
2022/01/11 09:57:06;;;;;;;6.65;4.38;;;;;;;23.30;58.96;101405.66;5032086;28;20535;-64
2022/01/11 09:59:33;;;;;;;6.45;4.35;;;;;;;23.84;58.80;101408.59;5025427;28;20160;-65
2022/01/11 10:02:00;;;;;;;9.43;5.97;;;;;;;23.98;57.08;101396.03;5027356;28;20151;-64
2022/01/11 10:04:30;;;;;;;6.75;4.45;;;;;;;24.11;56.58;101403.47;5033804;28;20052;-65
2022/01/11 10:07:00;;;;;;;3.65;2.90;;;;;;;23.91;55.88;101412.91;5028121;28;20132;-65
2022/01/11 10:09:40;;;;;;;4.88;3.42;;;;;;;24.04;54.42;101418.28;5031586;28;20133;-65
2022/01/11 10:12:12;;;;;;;5.22;2.97;;;;;;;24.51;54.60;101415.13;5031701;28;20555;-65
2022/01/11 10:14:59;;;;;;;4.45;2.67;;;;;;;24.65;55.56;101417.63;5017255;28;20121;-65
2022/01/11 10:17:28;;;;;;;6.57;2.22;;;;;;;24.50;54.22;101412.59;5017185;28;20125;-65
2022/01/11 10:20:01;;;;;;;3.88;2.42;;;;;;;24.24;53.52;101428.00;5033050;28;20509;-65
2022/01/11 10:22:30;;;;;;;5.30;2.70;;;;;;;23.75;50.84;101426.97;5033087;28;20564;-65
2022/01/11 10:24:58;;;;;;;3.85;2.47;;;;;;;23.63;50.51;101424.84;5025260;28;20183;-65
2022/01/11 10:27:34;;;;;;;5.10;2.47;;;;;;;23.53;52.15;101433.84;5028137;28;20045;-65
2022/01/11 10:30:14;;;;;;;3.10;2.05;;;;;;;23.79;50.75;101433.63;5027979;28;20073;-65
2022/01/11 10:32:46;;;;;;;3.80;2.40;;;;;;;23.97;49.98;101440.84;5018657;28;20072;-65
2022/01/11 10:35:13;;;;;;;3.17;1.98;;;;;;;23.91;48.44;101447.13;5024518;28;20120;-65
2022/01/11 10:38:01;;;;;;;5.10;3.17;;;;;;;23.28;47.86;101438.53;5032129;28;20054;-64
2022/01/11 10:40:34;;;;;;;3.20;2.15;;;;;;;23.10;47.98;101444.34;5029908;28;20600;-65
2022/01/11 10:43:06;;;;;;;3.85;2.42;;;;;;;23.51;47.68;101444.72;5031187;28;20128;-65
2022/01/11 10:45:38;;;;;;;4.05;2.40;;;;;;;24.24;47.73;101449.97;5023458;28;20100;-65
2022/01/11 10:48:07;;;;;;;4.05;2.72;;;;;;;24.93;46.46;101443.47;5032625;28;20124;-65
2022/01/11 10:50:37;;;;;;;6.25;3.20;;;;;;;24.92;44.66;101441.78;5029047;28;20140;-65
2022/01/11 10:53:06;;;;;;;;;;;;;;;24.66;46.11;101445.00;5019064;28;20566;-63
2022/01/11 10:55:34;;;;;;;4.13;2.88;;;;;;;24.83;45.04;101452.50;5027807;28;19975;-64
2022/01/11 10:58:22;;;;;;;4.75;2.60;;;;;;;25.08;44.29;101444.75;5028426;28;20050;-65
2022/01/11 11:00:54;;;;;;;6.47;3.63;;;;;;;25.19;44.00;101443.13;5031133;28;20136;-65
2022/01/11 11:03:24;;;;;;;2.38;1.85;;;;;;;25.88;44.49;101448.94;5042548;28;20205;-64
2022/01/11 11:05:57;;;;;;;3.80;2.58;;;;;;;25.29;41.10;101451.19;5027336;28;20057;-65
2022/01/11 11:08:26;;;;;;;4.43;2.83;;;;;;;24.89;41.06;101448.25;5019097;28;20128;-65
2022/01/11 11:10:56;;;;;;;4.72;2.40;;;;;;;24.98;40.01;101451.78;5017137;28;20072;-64
2022/01/11 11:13:25;;;;;;;;;;;;;;;24.78;41.06;101447.84;5032502;28;20292;-65
2022/01/11 11:15:54;;;;;;;4.90;2.40;;;;;;;24.61;39.93;101442.34;5027412;28;19960;-66
2022/01/11 11:18:21;;;;;;;;;;;;;;;25.23;41.67;101452.66;5027841;28;20490;-65
2022/01/11 11:20:48;;;;;;;4.38;2.45;;;;;;;25.90;40.09;101461.69;5026436;28;20342;-65
2022/01/11 11:23:17;;;;;;;4.47;2.65;;;;;;;26.19;38.99;101445.38;4994366;28;20566;-66
2022/01/11 11:25:44;;;;;;;3.78;2.95;;;;;;;26.96;38.61;101439.25;5023971;28;20128;-66
2022/01/11 11:28:11;;;;;;;4.03;2.72;;;;;;;27.99;38.27;101437.97;5020185;28;20120;-66